Peoria, IL (61603)

12:42 PM CDT on May 27, 2015 (GMT -0500)
Ricks Place | Change Station
CLOSE
Current Station
Personal Weather Station
Location: Peoria Heights, IL
Elevation: 775 ft
Nearby Weather Stations

Elev 775 ft 40.74 °N, 89.58 °W | Updated 12 seconds ago

Mostly Cloudy
Mostly Cloudy
76.3 °F
Feels Like 78 °F
N
3.6
Wind Variable Wind from SSW
Gusts 3.6 mph

Today
High -- | Low -- °F
--% Chance of Precip.
Yesterday
High -- | Low -- °F
Precip. -- in
5:32 AM 8:19 PM
Waxing Gibbous, 69% visible
Pressure 30.02 in
Visibility 10.0 miles
Clouds Scattered Clouds 3200 ft
Scattered Clouds 4100 ft
Mostly Cloudy 5000 ft
Heat Index 78 °F
Dew Point 50 °F
Humidity 40%
Rainfall 0.00 in
Snow Depth Not available.
UV 6 out of 12
Pollen 9.20 out of 12
Ozone Good
PM2.5 Good
Flu Activity Sporadic
METAR KPIA 271654Z 27009KT 10SM SCT032 SCT041 BKN050 24/16 A3003 RMK AO2 SLP166 T02390156

More Conditions Fewer Conditions

Pressure 30.02 in
Visibility 10.0 miles
Clouds Scattered Clouds 3200 ft
Scattered Clouds 4100 ft
Mostly Cloudy 5000 ft
Heat Index 78 °F
Dew Point 50 °F
Humidity 40%
Rainfall 0.00 in
Snow Depth Not available.
UV 6 out of 12
Pollen 9.20 out of 12
Ozone Good
PM2.5 Good
Flu Activity Sporadic
METAR KPIA 271654Z 27009KT 10SM SCT032 SCT041 BKN050 24/16 A3003 RMK AO2 SLP166 T02390156

More Conditions Fewer Conditions

10-Day Weather Forecast

Almanac

Astronomy

May. 27, 2015 Rise Set
Actual Time 5:32 AM CDT 8:19 PM CDT
Civil Twilight 4:59 AM CDT 8:51 PM CDT
Nautical Twilight 4:19 AM CDT 9:32 PM CDT
Astronomical Twilight 3:33 AM CDT 10:18 PM CDT
Moon 2:34 PM CDT 2:16 AM CDT
Length of Visible Light 15h 51m
Length of Day
14h 47m
Tomorrow will be 1m 24s longer.
Waxing Gibbous, 69% of the Moon is Illuminated
Today
Waxing Gibbous
Jun 2
Full
Jun 9
Last Quarter
Jun 16
New
Jun 24
First Quarter

Today's Extremes

State Highs State Lows

Community

WunderPhotos

Upload Photos

1,824,733 photos uploaded!

Nearby

Air Quality

  Air Quality AQ Index Pollutant
Yesterday Good
OZONE
Yesterday Good
PM2.5
Current Good
PM2.5
Current Good
OZONE
Wednesday Good
PM2.5
Wednesday Good
OZONE
Thursday Moderate
PM2.5
Thursday Moderate
OZONE
Friday Moderate
PM2.5
Friday Good
OZONE
Saturday Good
PM2.5
Saturday Good
OZONE
Sunday Good
PM2.5
Sunday Good
OZONE

Snow Depth

Station Depth Elevation
No new snow has been reported.

Earthquake Activity

City Distance Mag. Time & Date
No recent earthquake activity has been reported nearby.
Minimum magnitude displayed is 2.5.

Coastal Water Temperatures

Place Temperature
No Stations Reporting

Nearby Weather Stations